Airfield :
LOGIN :

Register | Disclaimer

   EN    FR    IT 

 










Legend :    VFR   Marginal VFR   IFR   Intensive IFR   Very Intensive IFR
Visi :
Ceiling :
>= 8 km
>= 3000ft
5 to 8 km
1000 to 3000 ft
1500m to 5 km
500 to 1000 ft
800 to 1500m
200 to 500 ft
< 800m
< 200 ft
Symbols :   Thunderstorms  Fog  Heavy snow  Heavy precipitations  Wind > 20 kt
SIGMETs :     Misc.  Thunderstorms  Icing  Turbulence  Mountain Waves  Volcanic Ashes






- Airport Elevation : 16 ft
- IATA code : AAE


DABB - Annaba-Rabah Bitat

CURRENT METAR :
  • 282330Z 21010KT CAVOK 13/07 Q1022

EXPIRED METARs :
  • 282300Z 22010KT CAVOK 11/07 Q1022
  • 282230Z 18009KT CAVOK 11/07 Q1022
  • 282200Z 18004KT CAVOK 11/07 Q1022
  • 282130Z 19009KT CAVOK 10/07 Q1022
  • 282100Z 19007KT CAVOK 11/07 Q1023

TAF TAF DABB
Valid from the 29 at 00:00 until the 30 at 00:00 UTC


282300Z 2900/2924 27008KT 9999 FEW020
PROB30
TEMPO 2900/2908 4000 BR SCT008
BECMG 2910/1913 36014KT
BECMG 2918/2920 28008KT



MET'MAP, your aeronautical weather chart ! - Copyright ORBIFLY December 2007 - Disclaimer

ORBIFLY MET'MAP TEAM :

Programming & Development : Alexandra Zaïnal
Concept & original design : Baudouin d'Aumeries
Assistance for programming : Marc-Olivier Méhu
Technical & hardware support : Manuel Goepfert

Contact : metmap@orbifly.com




SOURCES & CREDITS :

   NOAA